KDVT/DVT METAR and TAF weather

Enter ICAO airport designator
Station Type Date Time Source
KDVT METAR 2018/04/27 00:53 UTC NOAA

KDVT 270053Z AUTO 21011KT 10SM CLR 33/M02 A2978 RMK AO2 SLP062 T03331022


Station Type Date Time Source
KDVT Decoded METAR 2018/04/27 00:53 UTC NOAA

PHOENIX-DEER VALLEY MUN, AZ, United States (KDVT) 33-41N 112-04W 443M
Apr 26, 2018 - 08:53 PM EDT / 2018.04.27 0053 UTC
Wind: from the SSW (210 degrees) at 13 MPH (11 KT):0
Visibility: 10 mile(s):0
Sky conditions: clear
Temperature: 91.9 F (33.3 C)
Dew Point: 28.0 F (-2.2 C)
Relative Humidity: 10%
Pressure (altimeter): 29.78 in. Hg (1008 hPa)
ob: KDVT 270053Z AUTO 21011KT 10SM CLR 33/M02 A2978 RMK AO2 SLP062 T03331022
cycle: 1

Station Type Date Time Source
KDVT TAF UTC NOAA

Error!


Example: see airport list